IE-0011 weather

Limetree Airfield
Limetree, County Laois, Ireland

Public forecast

Using degrees Celsius for public forecast. Weather courtesy of forecast.io.

Closest aviation weather report (METAR) to Limetree Airfield

Closest report is Casement Air Base, 30.6 nm (56.7 km) ENE. Retrieved 2020/07/05 09:00 UTC (29 minutes ago):

EIME 050900Z 25023KT 9999 FEW018 BKN030 14/09 Q1006

Closest aviation forecast (TAF) to Limetree Airfield

Closest forecast is Dublin Airport, 39.5 nm (73.2 km) ENE. Retrieved 2020/07/05 06:11 UTC (3 hours ago):

TAF EIDW 050500Z 0506/0606 26016G28KT 9999 FEW018 SCT030 BECMG 0509/0511 26022G34KT TEMPO 0511/0517 26024G39KT TEMPO 0511/0520 -SHRA SCT018CB BECMG 0519/0521 27016KT TEMPO 0521/0606 28017G28KT